createdAt,value
2023-02-16T00:01:55.158Z,16.13
2023-02-16T00:04:45.802Z,17.47
2023-02-16T00:07:34.915Z,18.77
2023-02-16T00:10:24.341Z,18.00
2023-02-16T00:13:41.017Z,17.30
2023-02-16T00:16:30.310Z,19.40
2023-02-16T00:19:22.681Z,18.13
2023-02-16T00:22:13.398Z,18.73
2023-02-16T00:25:02.501Z,19.53
2023-02-16T00:27:51.802Z,21.57
2023-02-16T00:30:41.347Z,19.80
2023-02-16T00:33:31.833Z,21.27
2023-02-16T00:36:21.386Z,22.33
2023-02-16T00:39:12.109Z,22.43
2023-02-16T00:42:04.573Z,21.80
2023-02-16T00:44:55.877Z,20.80
2023-02-16T00:47:47.353Z,21.73
2023-02-16T00:50:36.794Z,22.17
2023-02-16T00:53:26.103Z,21.23
2023-02-16T00:56:21.305Z,21.30
2023-02-16T00:59:16.523Z,22.23
2023-02-16T01:02:05.801Z,21.23
2023-02-16T01:04:55.335Z,23.13
2023-02-16T01:08:02.571Z,21.20
2023-02-16T01:11:06.869Z,20.83
2023-02-16T01:13:58.939Z,20.57
2023-02-16T01:16:48.250Z,20.63
2023-02-16T01:19:37.497Z,21.10
2023-02-16T01:22:27.098Z,20.83
2023-02-16T01:25:17.139Z,22.03
2023-02-16T01:28:20.017Z,20.77
2023-02-16T01:31:11.934Z,20.80
2023-02-16T01:34:01.482Z,20.13
2023-02-16T01:36:51.303Z,20.57
2023-02-16T01:39:40.711Z,19.43
2023-02-16T01:42:38.578Z,20.63
2023-02-16T01:45:35.251Z,19.57
2023-02-16T01:48:29.578Z,21.43
2023-02-16T01:51:23.672Z,21.93
2023-02-16T01:54:32.804Z,20.37
2023-02-16T01:57:30.205Z,21.57
2023-02-16T02:00:29.090Z,20.00
2023-02-16T02:03:38.488Z,18.93
2023-02-16T02:06:35.000Z,20.17
2023-02-16T02:09:31.966Z,19.60
2023-02-16T02:13:38.500Z,18.90
2023-02-16T02:16:29.426Z,20.77
2023-02-16T02:19:18.858Z,20.30
2023-02-16T02:22:52.192Z,20.53
2023-02-16T02:26:14.329Z,21.33
2023-02-16T02:29:17.776Z,20.43
2023-02-16T02:32:17.951Z,20.80
2023-02-16T02:35:28.810Z,19.97
2023-02-16T02:38:25.532Z,19.57
2023-02-16T02:41:20.396Z,21.20
2023-02-16T02:44:12.132Z,21.57
2023-02-16T02:47:01.673Z,22.10
2023-02-16T02:49:52.293Z,21.17
2023-02-16T02:52:41.789Z,22.00
2023-02-16T02:55:52.311Z,21.27
2023-02-16T02:59:08.083Z,21.67
2023-02-16T03:02:02.420Z,21.87
2023-02-16T03:04:54.421Z,21.47
2023-02-16T03:07:49.185Z,23.47
2023-02-16T03:10:57.245Z,21.33
2023-02-16T03:13:49.657Z,24.37
2023-02-16T03:16:42.774Z,22.83
2023-02-16T03:19:50.741Z,22.47
2023-02-16T03:22:58.120Z,22.07
2023-02-16T03:26:04.775Z,22.50
2023-02-16T03:29:11.989Z,23.37
2023-02-16T03:32:01.478Z,22.17
2023-02-16T03:34:52.568Z,22.80
2023-02-16T03:37:42.354Z,22.07
2023-02-16T03:40:35.428Z,23.13
2023-02-16T03:43:27.989Z,22.97
2023-02-16T03:46:17.549Z,22.20
2023-02-16T03:49:06.950Z,20.33
2023-02-16T03:51:57.862Z,21.23
2023-02-16T03:54:47.288Z,20.97
2023-02-16T03:57:36.868Z,22.83
2023-02-16T04:00:26.450Z,21.30
2023-02-16T04:03:16.444Z,22.43
2023-02-16T04:06:07.515Z,21.93
2023-02-16T04:08:58.543Z,21.53
2023-02-16T04:12:05.173Z,22.63
2023-02-16T04:14:54.586Z,21.03
2023-02-16T04:17:44.160Z,22.50
2023-02-16T04:20:34.818Z,23.30
2023-02-16T04:23:24.345Z,22.60
2023-02-16T04:26:15.180Z,22.77
2023-02-16T04:29:04.640Z,22.27
2023-02-16T04:31:54.123Z,21.70
2023-02-16T04:34:43.700Z,21.70
2023-02-16T04:37:33.058Z,21.37
2023-02-16T04:40:23.212Z,21.93
2023-02-16T04:43:14.121Z,23.77
2023-02-16T04:46:03.589Z,20.40
2023-02-16T04:48:53.277Z,21.27
2023-02-16T04:51:42.676Z,22.00
2023-02-16T04:54:32.323Z,22.53
2023-02-16T04:57:24.474Z,22.93
2023-02-16T05:00:16.427Z,21.80
2023-02-16T05:03:06.010Z,22.00
2023-02-16T05:05:55.646Z,22.30
2023-02-16T05:08:45.057Z,22.23
2023-02-16T05:11:52.043Z,21.83
2023-02-16T05:14:45.379Z,22.73
2023-02-16T05:17:36.309Z,22.87
2023-02-16T05:20:46.141Z,21.77
2023-02-16T05:23:35.613Z,22.50
2023-02-16T05:26:24.977Z,21.37
2023-02-16T05:29:14.566Z,21.53
2023-02-16T05:32:04.853Z,23.60
2023-02-16T05:34:55.848Z,20.93
2023-02-16T05:37:45.305Z,22.03
2023-02-16T05:40:34.896Z,22.40
2023-02-16T05:43:24.377Z,22.43
2023-02-16T05:46:13.761Z,22.37
2023-02-16T05:49:04.049Z,23.17
2023-02-16T05:51:54.947Z,22.43
2023-02-16T05:54:44.447Z,23.20
2023-02-16T05:57:36.037Z,21.53
2023-02-16T06:00:25.819Z,24.30
2023-02-16T06:03:15.196Z,22.07
2023-02-16T06:06:05.878Z,22.73
2023-02-16T06:08:57.012Z,22.07
2023-02-16T06:11:46.767Z,25.37
2023-02-16T06:14:36.370Z,32.50
2023-02-16T06:17:25.937Z,23.03
2023-02-16T06:20:15.626Z,20.23
2023-02-16T06:23:05.107Z,22.60
2023-02-16T06:25:56.110Z,23.50
2023-02-16T06:28:45.994Z,23.17
2023-02-16T06:31:36.842Z,27.90
2023-02-16T06:34:27.080Z,22.47
2023-02-16T06:37:16.601Z,21.43
2023-02-16T06:40:06.545Z,21.70
2023-02-16T06:42:57.366Z,24.30
2023-02-16T06:45:46.927Z,26.80
2023-02-16T06:48:36.470Z,22.13
2023-02-16T06:51:26.269Z,34.00
2023-02-16T06:54:16.439Z,24.80
2023-02-16T06:57:06.097Z,24.30
2023-02-16T06:59:57.626Z,24.97
2023-02-16T07:02:47.097Z,24.50
2023-02-16T07:05:36.480Z,27.53
2023-02-16T07:08:25.759Z,25.07
2023-02-16T07:11:15.480Z,23.03
2023-02-16T07:14:04.962Z,24.97
2023-02-16T07:16:57.870Z,23.13
2023-02-16T07:19:47.279Z,48.30
2023-02-16T07:22:36.831Z,26.40
2023-02-16T07:25:26.719Z,23.67
2023-02-16T07:28:16.273Z,22.90
2023-02-16T07:31:10.431Z,22.40
2023-02-16T07:34:01.266Z,26.17
2023-02-16T07:36:50.865Z,21.47
2023-02-16T07:39:40.160Z,22.97
2023-02-16T07:42:32.753Z,23.07
2023-02-16T07:45:22.188Z,21.83
2023-02-16T07:48:11.700Z,21.20
2023-02-16T07:51:02.925Z,24.87
2023-02-16T07:53:52.538Z,22.83
2023-02-16T07:56:41.971Z,21.43
2023-02-16T07:59:31.580Z,22.03
2023-02-16T08:02:22.064Z,22.10
2023-02-16T08:05:11.543Z,23.30
2023-02-16T08:08:02.446Z,23.33
2023-02-16T08:10:51.844Z,24.83
2023-02-16T08:13:41.702Z,22.43
2023-02-16T08:16:31.793Z,23.07
2023-02-16T08:19:21.134Z,23.30
2023-02-16T08:22:12.662Z,23.97
2023-02-16T08:25:05.288Z,21.70
2023-02-16T08:27:55.938Z,23.57
2023-02-16T08:30:45.403Z,23.40
2023-02-16T08:33:35.713Z,25.47
2023-02-16T08:36:26.784Z,23.40
2023-02-16T08:39:19.345Z,38.13
2023-02-16T08:42:13.516Z,23.97
2023-02-16T08:45:02.866Z,23.03
2023-02-16T08:47:53.583Z,22.73
2023-02-16T08:50:47.377Z,23.57
2023-02-16T08:53:37.501Z,21.33
2023-02-16T08:56:26.960Z,21.67
2023-02-16T08:59:19.374Z,24.43
2023-02-16T09:02:08.933Z,28.60
2023-02-16T09:04:58.492Z,24.60
2023-02-16T09:07:49.086Z,28.90
2023-02-16T09:10:38.663Z,23.90
2023-02-16T09:13:28.245Z,28.67
2023-02-16T09:16:21.463Z,22.57
2023-02-16T09:19:10.874Z,21.50
2023-02-16T09:22:00.425Z,23.50
2023-02-16T09:24:49.738Z,21.90
2023-02-16T09:27:39.498Z,23.47
2023-02-16T09:30:29.368Z,24.10
2023-02-16T09:33:20.496Z,23.03
2023-02-16T09:36:11.895Z,24.20
2023-02-16T09:39:02.879Z,22.53
2023-02-16T09:42:13.274Z,23.23
2023-02-16T09:45:10.028Z,23.13
2023-02-16T09:48:01.068Z,23.73
2023-02-16T09:50:55.728Z,24.83
2023-02-16T09:53:47.079Z,24.67
2023-02-16T09:56:42.363Z,24.93
2023-02-16T09:59:43.611Z,24.77
2023-02-16T10:02:51.395Z,25.53
2023-02-16T10:05:48.532Z,24.37
2023-02-16T10:08:43.037Z,23.83
2023-02-16T10:11:45.951Z,25.10
2023-02-16T10:14:42.168Z,25.30
2023-02-16T10:17:40.238Z,26.20
2023-02-16T10:20:33.917Z,26.30
2023-02-16T10:23:36.419Z,26.77
2023-02-16T10:26:32.345Z,25.93
2023-02-16T10:29:24.456Z,25.10
2023-02-16T10:32:22.830Z,26.33
2023-02-16T10:35:17.756Z,25.13
2023-02-16T10:38:11.948Z,24.03
2023-02-16T10:41:06.695Z,24.40
2023-02-16T10:44:03.045Z,25.63
2023-02-16T10:46:58.302Z,23.50
2023-02-16T10:49:48.936Z,25.00
2023-02-16T10:52:42.435Z,26.37
2023-02-16T10:55:32.016Z,27.00
2023-02-16T10:58:24.171Z,26.87
2023-02-16T11:01:20.499Z,26.57
2023-02-16T11:04:10.775Z,26.37
2023-02-16T11:07:05.287Z,24.43
2023-02-16T11:10:01.690Z,25.37
2023-02-16T11:12:58.877Z,27.23
2023-02-16T11:15:55.428Z,26.13
2023-02-16T11:18:51.200Z,24.50
2023-02-16T11:21:49.757Z,24.70
2023-02-16T11:24:40.531Z,25.03
2023-02-16T11:27:30.291Z,25.33
2023-02-16T11:30:23.986Z,26.80
2023-02-16T11:33:25.519Z,25.60
2023-02-16T11:36:26.034Z,26.50
2023-02-16T11:39:22.095Z,27.77
2023-02-16T11:42:22.297Z,26.20
2023-02-16T11:45:26.099Z,27.97
2023-02-16T11:48:16.533Z,27.97
2023-02-16T11:51:08.482Z,30.40
2023-02-16T11:54:05.973Z,27.47
2023-02-16T11:57:06.962Z,31.77
2023-02-16T11:59:57.393Z,27.80
2023-02-16T12:03:12.590Z,31.37
2023-02-16T12:06:18.271Z,30.10
2023-02-16T12:09:20.466Z,27.30
2023-02-16T12:12:18.038Z,27.07
2023-02-16T12:15:19.688Z,26.43
2023-02-16T12:18:23.375Z,27.20
2023-02-16T12:21:18.420Z,25.67
2023-02-16T12:24:22.753Z,28.47
2023-02-16T12:27:20.531Z,29.67
2023-02-16T12:30:24.023Z,29.23
2023-02-16T12:33:38.977Z,29.37
2023-02-16T12:36:45.263Z,30.77
2023-02-16T12:39:42.002Z,32.03
2023-02-16T12:42:50.373Z,31.93
2023-02-16T12:45:43.847Z,30.30
2023-02-16T12:48:42.179Z,30.90
2023-02-16T12:51:37.241Z,30.20
2023-02-16T12:54:30.060Z,30.90
2023-02-16T12:57:24.743Z,30.90
2023-02-16T13:00:20.574Z,30.70
2023-02-16T13:03:25.873Z,29.93
2023-02-16T13:06:23.258Z,30.40
2023-02-16T13:09:25.403Z,31.53
2023-02-16T13:12:26.156Z,30.37
2023-02-16T13:15:18.612Z,31.30
2023-02-16T13:18:15.230Z,30.07
2023-02-16T13:21:11.279Z,30.17
2023-02-16T13:24:10.490Z,30.07
2023-02-16T13:27:12.546Z,30.67
2023-02-16T13:30:26.419Z,32.13
2023-02-16T13:33:30.176Z,33.00
2023-02-16T13:36:37.418Z,33.87
2023-02-16T13:39:48.878Z,35.17
2023-02-16T13:43:04.773Z,32.37
2023-02-16T13:45:56.049Z,33.10
2023-02-16T13:48:50.187Z,31.97
2023-02-16T13:51:44.755Z,32.40
2023-02-16T13:54:37.378Z,31.50
2023-02-16T13:58:00.539Z,28.07
2023-02-16T14:00:51.239Z,29.03
2023-02-16T14:03:42.464Z,32.53
2023-02-16T14:06:38.189Z,32.93
2023-02-16T14:09:50.481Z,29.30
2023-02-16T14:12:41.569Z,30.87
2023-02-16T14:15:31.896Z,28.30
2023-02-16T14:18:33.128Z,28.67
2023-02-16T14:21:37.659Z,29.27
2023-02-16T14:24:33.723Z,26.63
2023-02-16T14:27:42.564Z,25.93
2023-02-16T14:30:37.553Z,24.67
2023-02-16T14:33:40.512Z,24.43
2023-02-16T14:36:32.590Z,25.10
2023-02-16T14:39:23.472Z,25.70
2023-02-16T14:42:18.648Z,26.37
2023-02-16T14:45:39.068Z,27.77
2023-02-16T14:49:02.343Z,26.90
2023-02-16T14:52:25.014Z,25.93
2023-02-16T14:55:56.047Z,25.37
2023-02-16T14:58:55.971Z,27.37
2023-02-16T15:01:48.250Z,26.40
2023-02-16T15:04:40.134Z,28.30
2023-02-16T15:07:32.192Z,28.80
2023-02-16T15:10:27.174Z,28.00
2023-02-16T15:13:22.175Z,28.77
2023-02-16T15:16:16.254Z,29.03
2023-02-16T15:19:12.705Z,29.43
2023-02-16T15:22:22.548Z,30.23
2023-02-16T15:25:25.332Z,28.57
2023-02-16T15:28:22.500Z,27.57
2023-02-16T15:31:18.984Z,29.47
2023-02-16T15:34:10.216Z,28.10
2023-02-16T15:36:59.818Z,27.00
2023-02-16T15:40:12.126Z,27.67
2023-02-16T15:43:12.057Z,26.70
2023-02-16T15:46:03.497Z,28.53
2023-02-16T15:48:54.193Z,28.43
2023-02-16T15:51:58.757Z,27.93
2023-02-16T15:54:50.607Z,28.87
2023-02-16T15:57:42.299Z,28.30
2023-02-16T16:00:33.742Z,27.33
2023-02-16T16:03:24.141Z,27.30
2023-02-16T16:06:15.214Z,27.80
2023-02-16T16:09:09.595Z,28.80
2023-02-16T16:12:07.167Z,28.17
2023-02-16T16:14:59.762Z,27.67
2023-02-16T16:17:53.342Z,29.13
2023-02-16T16:20:45.256Z,26.93
2023-02-16T16:23:35.789Z,27.37
2023-02-16T16:26:28.792Z,28.30
2023-02-16T16:29:34.495Z,28.20
2023-02-16T16:32:27.766Z,28.33
2023-02-16T16:35:36.611Z,27.77
2023-02-16T16:38:29.267Z,26.20
2023-02-16T16:41:29.204Z,28.00
2023-02-16T16:44:34.596Z,27.47
2023-02-16T16:47:28.595Z,28.17
2023-02-16T16:50:35.989Z,26.87
2023-02-16T16:53:46.636Z,27.50
2023-02-16T16:56:40.647Z,29.03
2023-02-16T16:59:31.283Z,29.53
2023-02-16T17:02:23.271Z,28.80
2023-02-16T17:05:14.280Z,29.20
2023-02-16T17:08:08.730Z,28.60
2023-02-16T17:10:59.014Z,29.47
2023-02-16T17:13:50.790Z,27.27
2023-02-16T17:16:45.686Z,27.87
2023-02-16T17:19:36.384Z,28.03
2023-02-16T17:22:26.925Z,28.87
2023-02-16T17:25:20.011Z,27.97
2023-02-16T17:28:11.272Z,29.70
2023-02-16T17:31:01.662Z,28.13
2023-02-16T17:33:53.588Z,30.03
2023-02-16T17:36:45.029Z,29.43
2023-02-16T17:39:36.461Z,29.90
2023-02-16T17:42:28.936Z,29.17
2023-02-16T17:45:23.088Z,29.23
2023-02-16T17:52:02.724Z,26.77
2023-02-16T17:54:55.261Z,27.13
2023-02-16T17:57:47.230Z,29.63
2023-02-16T18:00:38.452Z,26.40
2023-02-16T18:03:29.542Z,27.47
2023-02-16T18:06:23.348Z,27.60
2023-02-16T18:09:28.472Z,28.03
2023-02-16T18:12:19.672Z,25.70
2023-02-16T18:15:28.793Z,26.70
2023-02-16T18:18:29.507Z,26.27
2023-02-16T18:21:28.448Z,28.50
2023-02-16T18:24:20.067Z,29.40
2023-02-16T18:27:17.727Z,27.20
2023-02-16T18:30:20.604Z,29.30
2023-02-16T18:33:13.745Z,29.07
2023-02-16T18:36:17.190Z,29.07
2023-02-16T18:39:18.574Z,27.60
2023-02-16T18:42:15.705Z,28.17
2023-02-16T18:45:08.262Z,29.33
2023-02-16T18:48:05.712Z,29.17
2023-02-16T18:50:58.846Z,28.67
2023-02-16T18:54:06.183Z,27.83
2023-02-16T18:57:03.783Z,28.43
2023-02-16T18:59:56.193Z,28.53
2023-02-16T19:02:54.199Z,28.93
2023-02-16T19:05:46.108Z,29.37
2023-02-16T19:08:49.275Z,30.43
2023-02-16T19:11:47.714Z,28.57
2023-02-16T19:14:46.884Z,30.37
2023-02-16T19:17:45.818Z,28.57
2023-02-16T19:20:36.773Z,28.40
2023-02-16T19:23:34.821Z,30.80
2023-02-16T19:26:30.502Z,28.63
2023-02-16T19:29:34.910Z,30.90
2023-02-16T19:32:33.593Z,28.13
2023-02-16T19:35:31.656Z,27.57
2023-02-16T19:38:29.914Z,27.40
2023-02-16T19:41:29.830Z,27.80
2023-02-16T19:44:22.911Z,28.77
2023-02-16T19:47:22.901Z,25.50
2023-02-16T19:50:21.462Z,26.50
2023-02-16T19:53:19.831Z,27.87
2023-02-16T19:56:19.859Z,27.27
2023-02-16T19:59:21.868Z,25.07
2023-02-16T20:02:16.522Z,26.93
2023-02-16T20:05:16.775Z,26.70
2023-02-16T20:08:08.056Z,25.83
2023-02-16T20:11:22.925Z,25.57
2023-02-16T20:14:39.990Z,35.47
2023-02-16T20:17:39.132Z,28.03
2023-02-16T20:20:37.786Z,25.60
2023-02-16T20:23:38.821Z,25.27
2023-02-16T20:26:39.829Z,24.50
2023-02-16T20:29:44.323Z,25.97
2023-02-16T20:32:38.957Z,24.63
2023-02-16T20:35:37.865Z,27.10
2023-02-16T20:38:28.178Z,25.10
2023-02-16T20:41:27.799Z,25.30
2023-02-16T20:44:19.680Z,25.73
2023-02-16T20:47:17.861Z,27.73
2023-02-16T20:50:09.321Z,26.37
2023-02-16T20:53:08.336Z,28.07
2023-02-16T20:56:04.695Z,27.63
2023-02-16T20:59:03.795Z,28.90
2023-02-16T21:01:58.460Z,30.50
2023-02-16T21:04:55.720Z,31.07
2023-02-16T21:07:49.098Z,29.23
2023-02-16T21:10:50.310Z,29.70
2023-02-16T21:13:47.424Z,30.10
2023-02-16T21:16:46.137Z,27.17
2023-02-16T21:19:56.584Z,27.13
2023-02-16T21:22:49.213Z,25.97
2023-02-16T21:25:48.897Z,27.57
2023-02-16T21:28:46.738Z,26.67
2023-02-16T21:31:45.491Z,28.80
2023-02-16T21:34:35.015Z,32.77
2023-02-16T21:37:33.500Z,32.23
2023-02-16T21:40:49.786Z,33.73
2023-02-16T21:43:47.664Z,31.90
2023-02-16T21:46:46.267Z,34.10
2023-02-16T21:49:34.860Z,33.70
2023-02-16T21:52:31.294Z,30.77
2023-02-16T21:55:44.335Z,36.33
2023-02-16T21:58:36.283Z,33.20
2023-02-16T22:01:36.260Z,34.43
2023-02-16T22:04:25.735Z,34.77
2023-02-16T22:07:21.313Z,35.30
2023-02-16T22:10:11.531Z,36.57
2023-02-16T22:13:08.319Z,37.87
2023-02-16T22:16:10.310Z,37.63
2023-02-16T22:19:08.341Z,35.57
2023-02-16T22:21:58.048Z,36.80
2023-02-16T22:24:54.375Z,35.53
2023-02-16T22:27:50.251Z,39.53
2023-02-16T22:30:39.595Z,35.30
2023-02-16T22:33:35.317Z,34.40
2023-02-16T22:36:33.304Z,36.03
2023-02-16T22:39:31.400Z,36.20
2023-02-16T22:42:20.897Z,36.23
2023-02-16T22:45:17.297Z,37.43
2023-02-16T22:48:06.897Z,37.27
2023-02-16T22:51:06.280Z,39.50
2023-02-16T22:54:47.815Z,37.67
2023-02-16T23:01:49.443Z,38.83
2023-02-16T23:04:45.336Z,40.10
2023-02-16T23:07:42.293Z,39.33
2023-02-16T23:10:39.332Z,37.90
2023-02-16T23:13:30.035Z,36.33
2023-02-16T23:16:25.118Z,40.87
2023-02-16T23:19:21.813Z,43.63
2023-02-16T23:22:11.413Z,43.97
2023-02-16T23:25:21.625Z,43.57
2023-02-16T23:28:13.229Z,41.90
2023-02-16T23:31:03.029Z,37.17
2023-02-16T23:33:53.672Z,41.37
2023-02-16T23:36:44.885Z,38.07
2023-02-16T23:39:34.216Z,44.37
2023-02-16T23:42:26.102Z,44.17
2023-02-16T23:45:15.342Z,43.70
2023-02-16T23:48:05.822Z,45.97
2023-02-16T23:50:55.682Z,45.20
2023-02-16T23:53:47.144Z,46.53
2023-02-16T23:56:36.508Z,46.33
2023-02-16T23:59:28.323Z,46.03
